createdAt,value
2023-05-13T00:00:07.019Z,74.16
2023-05-13T00:02:36.655Z,72.58
2023-05-13T00:05:04.024Z,72.52
2023-05-13T00:07:31.291Z,72.71
2023-05-13T00:09:58.539Z,73.21
2023-05-13T00:12:25.624Z,73.50
2023-05-13T00:14:52.726Z,74.57
2023-05-13T00:17:19.849Z,74.97
2023-05-13T00:19:47.037Z,75.44
2023-05-13T00:22:14.167Z,75.79
2023-05-13T00:24:41.183Z,75.49
2023-05-13T00:27:08.741Z,75.55
2023-05-13T00:29:36.196Z,76.33
2023-05-13T00:32:03.666Z,76.91
2023-05-13T00:34:31.058Z,77.50
2023-05-13T00:36:58.210Z,77.20
2023-05-13T00:39:25.576Z,78.24
2023-05-13T00:41:52.649Z,78.05
2023-05-13T00:44:19.885Z,78.36
2023-05-13T00:46:47.106Z,77.97
2023-05-13T00:49:14.241Z,78.00
2023-05-13T00:51:41.342Z,77.55
2023-05-13T00:54:08.462Z,76.98
2023-05-13T00:56:38.140Z,76.93
2023-05-13T00:59:05.425Z,77.01
2023-05-13T01:01:51.982Z,77.21
2023-05-13T01:04:44.120Z,77.25
2023-05-13T01:07:23.138Z,78.16
2023-05-13T01:09:55.374Z,78.30
2023-05-13T01:12:29.371Z,77.75
2023-05-13T01:15:05.804Z,77.85
2023-05-13T01:18:11.819Z,77.52
2023-05-13T01:20:42.652Z,76.33
2023-05-13T01:23:11.549Z,74.86
2023-05-13T01:25:40.289Z,74.09
2023-05-13T01:28:08.182Z,73.50
2023-05-13T01:30:36.960Z,73.65
2023-05-13T01:33:05.312Z,72.34
2023-05-13T01:35:32.639Z,72.31
2023-05-13T01:38:00.846Z,72.17
2023-05-13T01:40:32.779Z,71.80
2023-05-13T01:43:06.265Z,71.16
2023-05-13T01:45:33.792Z,70.84
2023-05-13T01:48:01.900Z,70.24
2023-05-13T01:50:38.988Z,69.68
2023-05-13T01:53:07.003Z,69.35
2023-05-13T01:55:35.114Z,69.81
2023-05-13T01:58:04.360Z,69.45
2023-05-13T02:00:31.578Z,69.54
2023-05-13T02:02:58.957Z,69.16
2023-05-13T02:05:26.135Z,68.85
2023-05-13T02:07:54.964Z,69.23
2023-05-13T02:10:22.407Z,69.06
2023-05-13T02:12:49.836Z,69.00
2023-05-13T02:15:17.174Z,68.90
2023-05-13T02:17:44.661Z,68.96
2023-05-13T02:20:12.914Z,68.94
2023-05-13T02:22:40.148Z,68.89
2023-05-13T02:25:08.758Z,68.84
2023-05-13T02:27:37.693Z,68.53
2023-05-13T02:30:05.550Z,68.36
2023-05-13T02:32:33.853Z,68.42
2023-05-13T02:35:01.055Z,68.39
2023-05-13T02:37:28.207Z,68.42
2023-05-13T02:40:02.030Z,68.32
2023-05-13T02:42:29.722Z,68.12
2023-05-13T02:44:57.651Z,68.22
2023-05-13T02:47:26.571Z,68.00
2023-05-13T02:49:56.151Z,67.84
2023-05-13T02:52:23.704Z,67.91
2023-05-13T02:54:50.921Z,67.94
2023-05-13T02:57:18.263Z,67.89
2023-05-13T02:59:46.245Z,67.84
2023-05-13T03:02:13.506Z,67.88
2023-05-13T03:04:41.368Z,67.79
2023-05-13T03:07:08.762Z,67.66
2023-05-13T03:09:39.125Z,67.83
2023-05-13T03:12:08.074Z,67.71
2023-05-13T03:14:36.967Z,67.87
2023-05-13T03:17:04.670Z,68.06
2023-05-13T03:19:33.939Z,67.86
2023-05-13T03:22:01.148Z,67.56
2023-05-13T03:24:28.314Z,67.66
2023-05-13T03:26:56.652Z,67.48
2023-05-13T05:34:18.189Z,46.46
2023-05-13T05:36:45.425Z,45.94
2023-05-13T05:39:13.736Z,45.08
2023-05-13T05:41:40.780Z,45.21
2023-05-13T05:44:08.127Z,45.31
2023-05-13T05:46:35.218Z,45.30
2023-05-13T05:49:09.469Z,44.76
2023-05-13T05:51:37.453Z,44.29
2023-05-13T05:54:05.925Z,43.74
2023-05-13T05:56:33.104Z,43.98
2023-05-13T05:59:00.488Z,44.11
2023-05-13T06:01:33.941Z,43.89
2023-05-13T06:04:01.267Z,42.49
2023-05-13T06:06:29.914Z,43.27
2023-05-13T06:08:57.057Z,42.65
2023-05-13T06:11:24.045Z,43.00
2023-05-13T06:13:51.541Z,42.51
2023-05-13T06:16:18.708Z,41.86
2023-05-13T06:18:45.823Z,42.13
2023-05-13T06:21:12.913Z,42.36
2023-05-13T06:23:40.577Z,42.63
2023-05-13T06:26:07.769Z,42.29
2023-05-13T06:28:35.859Z,41.95
2023-05-13T06:31:03.059Z,41.69
2023-05-13T06:33:30.178Z,41.35
2023-05-13T06:35:57.367Z,40.86
2023-05-13T06:38:25.847Z,40.34
2023-05-13T06:40:56.595Z,40.17
2023-05-13T06:43:30.927Z,39.60
2023-05-13T06:46:01.956Z,40.02
2023-05-13T06:48:29.681Z,39.86
2023-05-13T06:50:57.445Z,39.40
2023-05-13T06:53:24.499Z,39.32
2023-05-13T06:55:51.592Z,39.18
2023-05-13T06:58:18.637Z,39.28
2023-05-13T07:00:47.091Z,39.29
2023-05-13T07:03:14.258Z,38.66
2023-05-13T07:05:41.309Z,38.16
2023-05-13T07:08:08.790Z,37.83
2023-05-13T07:10:36.276Z,37.95
2023-05-13T07:13:03.533Z,37.46
2023-05-13T07:15:30.822Z,37.67
2023-05-13T07:17:57.869Z,37.01
2023-05-13T07:20:26.689Z,35.75
2023-05-13T07:22:54.081Z,35.54
2023-05-13T07:25:21.304Z,36.01
2023-05-13T07:27:48.631Z,36.58
2023-05-13T07:30:16.036Z,35.55
2023-05-13T07:32:43.565Z,35.27
2023-05-13T07:35:10.934Z,35.87
2023-05-13T07:37:38.419Z,35.19
2023-05-13T07:40:06.534Z,35.48
2023-05-13T07:42:33.825Z,35.29
2023-05-13T07:45:00.918Z,34.23
2023-05-13T07:47:29.391Z,34.21
2023-05-13T07:49:56.724Z,34.86
2023-05-13T07:52:23.837Z,34.43
2023-05-13T07:54:50.955Z,33.98
2023-05-13T07:57:18.802Z,34.20
2023-05-13T07:59:49.458Z,34.57
2023-05-13T08:02:16.564Z,34.58
2023-05-13T08:04:44.031Z,34.39
2023-05-13T08:07:11.928Z,34.23
2023-05-13T08:09:39.108Z,33.97
2023-05-13T08:12:06.566Z,33.50
2023-05-13T08:14:33.631Z,32.51
2023-05-13T08:17:01.150Z,32.09
2023-05-13T08:19:28.298Z,31.83
2023-05-13T08:21:55.500Z,31.92
2023-05-13T08:24:22.516Z,31.44
2023-05-13T08:26:49.621Z,31.00
2023-05-13T08:29:16.685Z,31.18
2023-05-13T08:31:43.756Z,31.57
2023-05-13T08:34:11.129Z,31.46
2023-05-13T08:36:38.172Z,31.52
2023-05-13T08:39:05.375Z,30.68
2023-05-13T08:41:32.534Z,31.45
2023-05-13T08:44:00.535Z,30.67
2023-05-13T08:46:27.946Z,30.00
2023-05-13T08:48:55.935Z,30.36
2023-05-13T08:51:23.009Z,29.99
2023-05-13T08:53:50.512Z,30.84
2023-05-13T08:56:17.565Z,30.25
2023-05-13T08:58:44.647Z,29.90
2023-05-13T09:01:11.777Z,30.03
2023-05-13T09:03:50.439Z,30.05
2023-05-13T09:06:17.576Z,30.11
2023-05-13T09:08:44.651Z,30.01
2023-05-13T09:11:17.434Z,30.29
2023-05-13T09:13:44.855Z,29.72
2023-05-13T09:16:14.305Z,29.27
2023-05-13T09:18:42.242Z,29.08
2023-05-13T09:21:23.697Z,29.03
2023-05-13T09:23:53.413Z,29.38
2023-05-13T09:26:29.857Z,28.60
2023-05-13T09:29:20.718Z,28.75
2023-05-13T09:31:55.330Z,29.38
2023-05-13T09:34:26.292Z,29.23
2023-05-13T09:37:12.891Z,29.30
2023-05-13T09:39:41.663Z,29.53
2023-05-13T09:42:16.633Z,29.20
2023-05-13T09:44:44.672Z,28.11
2023-05-13T09:47:13.030Z,28.77
2023-05-13T09:49:41.358Z,28.94
2023-05-13T09:52:11.352Z,27.62
2023-05-13T09:54:38.875Z,28.70
2023-05-13T09:57:06.454Z,28.47
2023-05-13T09:59:36.461Z,28.50
2023-05-13T10:02:07.619Z,28.24
2023-05-13T10:04:34.830Z,28.68
2023-05-13T10:07:03.376Z,28.43
2023-05-13T10:09:39.466Z,28.70
2023-05-13T10:12:07.758Z,28.82
2023-05-13T10:14:37.007Z,28.30
2023-05-13T10:17:05.445Z,27.69
2023-05-13T10:19:32.532Z,26.86
2023-05-13T10:21:59.817Z,26.97
2023-05-13T10:24:29.073Z,26.74
2023-05-13T10:26:56.395Z,27.70
2023-05-13T10:29:23.784Z,28.01
2023-05-13T10:31:50.914Z,27.84
2023-05-13T10:34:18.167Z,28.52
2023-05-13T10:36:48.137Z,27.96
2023-05-13T10:39:33.471Z,28.14
2023-05-13T10:42:31.145Z,29.29
2023-05-13T10:44:58.402Z,28.67
2023-05-13T10:47:25.564Z,28.10
2023-05-13T10:49:55.559Z,27.79
2023-05-13T10:52:22.618Z,27.18
2023-05-13T10:55:05.207Z,27.31
2023-05-13T10:57:37.094Z,27.04
2023-05-13T11:00:17.122Z,26.92
2023-05-13T11:02:44.455Z,26.92
2023-05-13T11:05:19.710Z,26.29
2023-05-13T11:07:57.820Z,25.44
2023-05-13T11:10:30.180Z,25.57
2023-05-13T11:13:36.000Z,25.89
2023-05-13T11:16:04.544Z,25.97
2023-05-13T11:18:32.989Z,26.15
2023-05-13T11:21:05.614Z,25.78
2023-05-13T11:23:34.930Z,26.50
2023-05-13T11:26:17.217Z,27.30
2023-05-13T11:29:16.862Z,26.96
2023-05-13T11:31:53.152Z,26.40
2023-05-13T11:34:20.600Z,26.89
2023-05-13T11:36:49.848Z,26.67
2023-05-13T11:39:21.649Z,26.86
2023-05-13T11:41:50.315Z,27.08
2023-05-13T11:44:21.702Z,27.43
2023-05-13T11:46:55.640Z,27.60
2023-05-13T11:49:41.969Z,27.13
2023-05-13T11:52:19.442Z,28.03
2023-05-13T11:54:48.675Z,27.64
2023-05-13T11:57:22.924Z,28.10
2023-05-13T11:59:57.759Z,28.56
2023-05-13T12:02:33.745Z,28.88
2023-05-13T12:05:02.486Z,28.84
2023-05-13T12:07:31.066Z,29.07
2023-05-13T12:10:59.841Z,29.14
2023-05-13T12:13:26.837Z,29.47
2023-05-13T12:15:53.948Z,29.47
2023-05-13T12:18:21.048Z,29.34
2023-05-13T12:20:48.090Z,29.04
2023-05-13T12:23:15.633Z,29.58
2023-05-13T12:25:43.888Z,31.18
2023-05-13T12:28:22.087Z,29.85
2023-05-13T12:30:59.189Z,29.71
2023-05-13T12:33:27.496Z,29.70
2023-05-13T12:36:00.362Z,30.03
2023-05-13T12:38:27.511Z,29.97
2023-05-13T12:40:55.217Z,29.75
2023-05-13T12:43:23.150Z,30.13
2023-05-13T12:45:54.371Z,29.74
2023-05-13T12:48:24.030Z,30.84
2023-05-13T12:50:51.657Z,30.40
2023-05-13T12:53:18.773Z,30.37
2023-05-13T12:55:45.738Z,31.31
2023-05-13T12:58:13.296Z,30.98
2023-05-13T13:00:40.502Z,30.66
2023-05-13T13:03:08.390Z,30.01
2023-05-13T13:05:35.878Z,29.69
2023-05-13T13:08:05.491Z,30.15
2023-05-13T13:10:32.989Z,29.63
2023-05-13T13:13:00.178Z,29.68
2023-05-13T13:15:27.484Z,29.88
2023-05-13T13:17:54.651Z,30.52
2023-05-13T13:20:22.483Z,29.58
2023-05-13T13:22:49.615Z,29.00
2023-05-13T13:25:16.775Z,29.65
2023-05-13T13:27:44.075Z,30.13
2023-05-13T13:30:11.834Z,30.77
2023-05-13T13:32:38.983Z,30.76
2023-05-13T13:35:06.425Z,31.04
2023-05-13T13:37:33.965Z,30.98
2023-05-13T13:40:02.800Z,31.41
2023-05-13T13:42:43.504Z,30.13
2023-05-13T13:45:13.224Z,30.12
2023-05-13T13:47:40.999Z,30.29
2023-05-13T13:50:08.308Z,29.94
2023-05-13T13:52:35.557Z,30.05
2023-05-13T13:55:02.634Z,30.08
2023-05-13T13:57:31.352Z,30.55
2023-05-13T13:59:58.578Z,30.97
2023-05-13T14:02:25.809Z,30.49
2023-05-13T14:04:54.050Z,30.70
2023-05-13T14:07:21.231Z,30.98
2023-05-13T14:09:49.918Z,31.27
2023-05-13T14:12:17.351Z,31.71
2023-05-13T14:14:44.587Z,31.64
2023-05-13T14:17:12.518Z,31.65
2023-05-13T14:19:41.355Z,31.87
2023-05-13T14:22:08.408Z,31.87
2023-05-13T14:24:35.427Z,32.10
2023-05-13T14:27:02.481Z,31.77
2023-05-13T14:29:29.600Z,31.85
2023-05-13T14:31:56.845Z,31.74
2023-05-13T14:34:23.897Z,31.41
2023-05-13T14:36:51.471Z,31.70
2023-05-13T14:39:18.620Z,31.38
2023-05-13T14:41:46.346Z,32.17
2023-05-13T14:44:14.140Z,31.95
2023-05-13T14:46:41.830Z,32.39
2023-05-13T14:49:09.033Z,32.38
2023-05-13T14:51:36.172Z,33.18
2023-05-13T14:54:03.523Z,33.23
2023-05-13T14:56:31.035Z,32.33
2023-05-13T14:58:58.137Z,32.25
2023-05-13T15:01:25.435Z,32.41
2023-05-13T15:03:52.629Z,32.82
2023-05-13T15:06:22.641Z,32.94
2023-05-13T15:08:49.866Z,33.47
2023-05-13T15:11:17.353Z,33.09
2023-05-13T15:13:44.456Z,33.07
2023-05-13T15:16:11.905Z,33.21
2023-05-13T15:18:39.463Z,33.25
2023-05-13T15:21:06.669Z,33.18
2023-05-13T15:23:34.209Z,33.42
2023-05-13T15:26:01.199Z,33.70
2023-05-13T15:28:29.376Z,33.62
2023-05-13T15:30:56.523Z,33.93
2023-05-13T15:33:23.698Z,34.08
2023-05-13T15:35:51.042Z,34.73
2023-05-13T15:38:18.211Z,34.97
2023-05-13T15:40:47.523Z,35.09
2023-05-13T15:43:14.630Z,35.94
2023-05-13T15:45:41.688Z,36.35
2023-05-13T15:48:09.039Z,36.75
2023-05-13T15:50:36.368Z,37.29
2023-05-13T15:53:03.351Z,37.31
2023-05-13T15:55:32.059Z,37.30
2023-05-13T15:57:59.237Z,37.83
2023-05-13T16:00:26.585Z,38.13
2023-05-13T16:02:53.689Z,38.30
2023-05-13T16:05:20.828Z,38.25
2023-05-13T16:07:48.058Z,38.42
2023-05-13T16:10:15.523Z,38.47
2023-05-13T16:12:43.260Z,39.12
2023-05-13T16:15:11.381Z,39.67
2023-05-13T16:17:38.782Z,39.90
2023-05-13T16:20:06.687Z,40.65
2023-05-13T16:22:37.894Z,40.94
2023-05-13T16:25:09.608Z,41.35
2023-05-13T16:27:40.653Z,41.35
2023-05-13T16:30:13.701Z,41.64
2023-05-13T16:32:40.918Z,41.17
2023-05-13T16:35:10.146Z,41.22
2023-05-13T16:37:37.307Z,41.45
2023-05-13T16:40:05.152Z,41.39
2023-05-13T16:42:32.445Z,41.65
2023-05-13T16:44:59.644Z,41.69
2023-05-13T16:47:26.821Z,41.43
2023-05-13T16:49:56.230Z,41.24
2023-05-13T16:52:24.220Z,41.57
2023-05-13T16:54:51.587Z,41.63
2023-05-13T16:57:19.440Z,41.60
2023-05-13T16:59:46.495Z,41.45
2023-05-13T17:02:14.319Z,42.33
2023-05-13T17:04:41.585Z,43.25
2023-05-13T17:07:09.743Z,43.61
2023-05-13T17:09:37.482Z,43.34
2023-05-13T17:12:04.970Z,43.16
2023-05-13T17:14:32.115Z,43.72
2023-05-13T17:16:59.236Z,43.39
2023-05-13T17:19:26.393Z,43.13
2023-05-13T17:21:53.432Z,43.25
2023-05-13T17:24:22.461Z,43.04
2023-05-13T17:26:50.126Z,43.66
2023-05-13T17:29:17.392Z,44.24
2023-05-13T17:31:45.207Z,44.85
2023-05-13T17:34:12.693Z,45.65
2023-05-13T17:36:39.767Z,46.55
2023-05-13T17:39:06.825Z,47.83
2023-05-13T17:41:33.926Z,48.66
2023-05-13T17:44:01.112Z,48.64
2023-05-13T17:46:28.246Z,48.38
2023-05-13T17:48:55.906Z,48.26
2023-05-13T17:51:23.582Z,47.41
2023-05-13T17:53:53.717Z,47.82
2023-05-13T17:56:21.688Z,47.86
2023-05-13T17:58:51.723Z,48.59
2023-05-13T18:01:21.939Z,48.55
2023-05-13T18:03:49.343Z,48.48
2023-05-13T18:06:16.603Z,49.13
2023-05-13T18:08:43.943Z,49.64
2023-05-13T18:11:12.199Z,51.02
2023-05-13T18:13:39.400Z,52.32
2023-05-13T18:16:09.228Z,52.90
2023-05-13T18:18:37.001Z,53.99
2023-05-13T18:21:04.211Z,55.10
2023-05-13T18:23:32.884Z,55.73
2023-05-13T18:25:59.956Z,56.16
2023-05-13T18:28:27.036Z,56.52
2023-05-13T18:30:54.377Z,56.76
2023-05-13T18:33:21.918Z,56.31
2023-05-13T18:35:49.064Z,56.24
2023-05-13T18:38:16.284Z,55.83
2023-05-13T18:40:43.415Z,55.55
2023-05-13T18:43:10.656Z,55.64
2023-05-13T18:45:37.791Z,55.06
2023-05-13T18:48:08.324Z,55.07
2023-05-13T18:50:35.558Z,54.37
2023-05-13T18:53:02.865Z,53.98
2023-05-13T18:55:30.000Z,54.58
2023-05-13T18:57:57.149Z,54.95
2023-05-13T19:00:24.453Z,55.27
2023-05-13T19:02:52.056Z,55.19
2023-05-13T19:05:20.504Z,55.79
2023-05-13T19:07:47.851Z,56.40
2023-05-13T19:10:16.086Z,57.03
2023-05-13T19:12:43.173Z,57.52
2023-05-13T19:15:11.507Z,57.23
2023-05-13T19:17:40.561Z,56.62
2023-05-13T19:20:08.687Z,56.70
2023-05-13T19:22:35.839Z,56.53
2023-05-13T19:25:03.240Z,56.64
2023-05-13T19:27:31.739Z,56.70
2023-05-13T19:29:59.248Z,57.09
2023-05-13T19:32:26.466Z,57.42
2023-05-13T19:34:53.639Z,57.31
2023-05-13T19:37:20.746Z,56.88
2023-05-13T19:39:48.050Z,57.05
2023-05-13T19:42:15.198Z,56.99
2023-05-13T19:44:42.646Z,56.96
2023-05-13T19:47:09.763Z,57.18
2023-05-13T19:49:37.018Z,57.50
2023-05-13T19:52:04.321Z,57.43
2023-05-13T19:54:31.605Z,57.22
2023-05-13T19:56:58.809Z,57.49
2023-05-13T19:59:25.844Z,57.70
2023-05-13T20:01:53.204Z,57.91
2023-05-13T20:04:20.501Z,58.38
2023-05-13T20:06:47.805Z,58.72
2023-05-13T20:09:15.029Z,58.83
2023-05-13T20:11:42.097Z,58.84
2023-05-13T20:14:09.229Z,58.38
2023-05-13T20:16:37.053Z,58.40
2023-05-13T20:19:04.514Z,58.44
2023-05-13T20:21:32.763Z,59.14
2023-05-13T20:24:00.012Z,59.49
2023-05-13T20:26:27.487Z,58.74
2023-05-13T20:28:54.540Z,58.92
2023-05-13T20:31:21.616Z,58.83
2023-05-13T20:33:48.773Z,58.82
2023-05-13T20:36:15.972Z,57.95
2023-05-13T20:38:43.397Z,57.74
2023-05-13T20:41:10.491Z,57.86
2023-05-13T20:43:37.644Z,58.26
2023-05-13T20:46:07.047Z,58.45
2023-05-13T20:48:35.271Z,58.37
2023-05-13T20:51:03.877Z,58.19
2023-05-13T20:53:34.501Z,58.20
2023-05-13T20:56:02.571Z,58.41
2023-05-13T20:58:31.096Z,58.19
2023-05-13T21:00:59.073Z,58.29
2023-05-13T21:03:26.542Z,57.88
2023-05-13T21:05:53.581Z,57.85
2023-05-13T21:08:20.670Z,57.67
2023-05-13T21:10:47.919Z,58.20
2023-05-13T21:13:15.155Z,58.06
2023-05-13T21:15:42.442Z,58.51
2023-05-13T21:18:09.701Z,58.14
2023-05-13T21:20:36.856Z,58.52
2023-05-13T21:23:04.104Z,58.84
2023-05-13T21:25:31.279Z,58.70
2023-05-13T21:27:58.551Z,58.46
2023-05-13T21:30:26.076Z,59.39
2023-05-13T21:32:53.310Z,59.57
2023-05-13T21:35:20.722Z,59.51
2023-05-13T21:37:48.777Z,59.32
2023-05-13T21:40:16.737Z,59.86
2023-05-13T21:42:43.899Z,59.60
2023-05-13T21:45:12.004Z,59.92
2023-05-13T21:47:39.441Z,60.48
2023-05-13T21:50:07.932Z,60.11
2023-05-13T21:52:35.024Z,59.88
2023-05-13T21:55:02.096Z,59.75
2023-05-13T21:57:32.877Z,60.29
2023-05-13T21:59:59.895Z,60.34
2023-05-13T22:02:27.166Z,60.77
2023-05-13T22:04:54.343Z,60.63
2023-05-13T22:07:21.356Z,60.97
2023-05-13T22:09:50.331Z,61.15
2023-05-13T22:12:17.700Z,61.44
2023-05-13T22:14:45.395Z,61.33
2023-05-13T22:17:12.758Z,61.42
2023-05-13T22:19:39.986Z,61.78
2023-05-13T22:22:07.123Z,62.31
2023-05-13T22:24:34.120Z,62.94
2023-05-13T22:27:01.351Z,62.85
2023-05-13T22:29:28.519Z,63.06
2023-05-13T22:31:57.558Z,63.18
2023-05-13T22:34:26.163Z,63.23
2023-05-13T22:36:53.118Z,63.50
2023-05-13T22:39:20.412Z,63.76
2023-05-13T22:41:47.690Z,63.71
2023-05-13T22:44:14.727Z,63.77
2023-05-13T22:46:41.782Z,63.95
2023-05-13T22:49:10.496Z,63.85
2023-05-13T22:51:37.729Z,64.36
2023-05-13T22:54:04.815Z,64.80
2023-05-13T22:56:31.785Z,65.40
2023-05-13T22:58:59.387Z,65.64
2023-05-13T23:01:26.332Z,65.96
2023-05-13T23:03:53.518Z,66.01
2023-05-13T23:06:20.805Z,65.79
2023-05-13T23:08:48.482Z,65.86
2023-05-13T23:11:15.749Z,66.11
2023-05-13T23:13:42.734Z,66.19
2023-05-13T23:16:09.954Z,66.32
2023-05-13T23:18:37.325Z,66.39
2023-05-13T23:21:04.798Z,66.47
2023-05-13T23:23:32.025Z,66.69
2023-05-13T23:25:59.091Z,66.87
2023-05-13T23:28:26.099Z,67.06
2023-05-13T23:30:54.377Z,67.24
2023-05-13T23:33:21.413Z,67.20
2023-05-13T23:35:54.599Z,67.61
2023-05-13T23:38:21.859Z,67.07
2023-05-13T23:40:48.924Z,67.48
2023-05-13T23:43:16.265Z,67.58
2023-05-13T23:45:43.431Z,68.08
2023-05-13T23:48:10.679Z,68.15
2023-05-13T23:50:37.996Z,68.41
2023-05-13T23:53:05.517Z,68.31
2023-05-13T23:55:32.496Z,68.18
2023-05-13T23:57:59.559Z,68.70
